Terminal Aerodrome Forecast
Issued by NWS Sterling, VA

Home | Current Version | Previous Version | Text Only | Print | Product List | Glossary On
Versions: 1 2 3 4 5 6 7 8 9 10 11 12 13 14 15 16 17 18 19 20 21
698
FTUS41 KLWX 261731
TAFDCA
TAF
KDCA 261731Z 2618/2718 07008KT P6SM OVC008
     FM262100 09008KT P6SM OVC008
     FM262300 09008KT 4SM BR OVC008
     FM270500 14007KT 2SM -DZ BR OVC008
     FM271100 19007KT 4SM BR BKN008
     FM271400 20009KT P6SM BKN008
     FM271700 22008KT P6SM BKN030=

USA.gov is the U.S. government's official web portal to all federal, state and local government web resources and services.